Crystal Symphony — C6MY5 — position and weather

sailwx.info

Track history (hours):
 
Tides and Currents Weather Stations Pressure Air Temp Water Temp Dewpoint Dewpoint Depression Visibility Wind Speed Wind Dir Waves Ship Positions

Crystal Symphony

Operator: Crystal Cruises

Last reported at 2017-Jan-16 07:12 UTC. Time now 2017-Jan-16 11:05 UTC.
Position S 36°13' E 174°56'.

Length 238 m; draft 8 m.

Type: Ship. MMSI: 309168000.

Date/timePositionNaut miles runAvg speedWind from/ knotsBaromVisibWave heightAir tempDewpointWater temp
2017-Jan-16 07:12S 36°13' E 174°56'1015.0
2017-Jan-16 06:33S 36°22' E 174°60'1414.0
2017-Jan-16 05:33S 36°36' E 174°57'1413.9
2017-Jan-16 04:33S 36°48' E 174°49'3 3.5
2017-Jan-16 03:33S 36°51' E 174°46'0 0.0
2017-Jan-16 02:33S 36°51' E 174°46'0 0.0
2017-Jan-15 21:24S 36°51' E 174°46'78 7.2
2017-Jan-15 10:33S 37°29' E 176°11'9 8.9
2017-Jan-15 09:32S 37°38' E 176°11'0 0.0
2017-Jan-15 08:31S 37°38' E 176°11'0 0.0
2017-Jan-15 07:31S 37°39' E 176°11'0 0.0
2017-Jan-15 06:28S 37°39' E 176°11'0 0.0
2017-Jan-15 05:33S 37°38' E 176°11'0 0.0
2017-Jan-15 04:33S 37°38' E 176°11'0 0.0
2017-Jan-15 03:32S 37°38' E 176°11'0 0.0
2017-Jan-15 02:32S 37°39' E 176°11'0 0.0
2017-Jan-15 01:31S 37°38' E 176°11'0 0.0
2017-Jan-15 00:31S 37°38' E 176°11'0 0.0
2017-Jan-14 23:33S 37°38' E 176°11'0 0.0
2017-Jan-14 22:33S 37°39' E 176°11'0 0.2
2017-Jan-14 21:33S 37°39' E 176°11'  
Track history (hours):
 
Tides and Currents Weather Stations Pressure Air Temp Water Temp Dewpoint Dewpoint Depression Visibility Wind Speed Wind Dir Waves Ship Positions

Crystal Symphony

Operator: Crystal Cruises

Last reported at 2017-Jan-16 07:12 UTC. Time now 2017-Jan-16 11:05 UTC.
Position S 36°13' E 174°56'.

Length 238 m; draft 8 m.

Type: Ship. MMSI: 309168000.

Date/timePositionNaut miles runAvg speedWind from/ knotsBaromVisibWave heightAir tempDewpointWater temp
2017-Jan-16 07:12S 36°13' E 174°56'1015.0
2017-Jan-16 06:33S 36°22' E 174°60'1414.0
2017-Jan-16 05:33S 36°36' E 174°57'1413.9
2017-Jan-16 04:33S 36°48' E 174°49'3 3.5
2017-Jan-16 03:33S 36°51' E 174°46'0 0.0
2017-Jan-16 02:33S 36°51' E 174°46'0 0.0
2017-Jan-15 21:24S 36°51' E 174°46'78 7.2
2017-Jan-15 10:33S 37°29' E 176°11'9 8.9
2017-Jan-15 09:32S 37°38' E 176°11'0 0.0
2017-Jan-15 08:31S 37°38' E 176°11'0 0.0
2017-Jan-15 07:31S 37°39' E 176°11'0 0.0
2017-Jan-15 06:28S 37°39' E 176°11'0 0.0
2017-Jan-15 05:33S 37°38' E 176°11'0 0.0
2017-Jan-15 04:33S 37°38' E 176°11'0 0.0
2017-Jan-15 03:32S 37°38' E 176°11'0 0.0
2017-Jan-15 02:32S 37°39' E 176°11'0 0.0
2017-Jan-15 01:31S 37°38' E 176°11'0 0.0
2017-Jan-15 00:31S 37°38' E 176°11'0 0.0
2017-Jan-14 23:33S 37°38' E 176°11'0 0.0
2017-Jan-14 22:33S 37°39' E 176°11'0 0.2
2017-Jan-14 21:33S 37°39' E 176°11'  

Dump ship's entire track history